Time;durP1;ratioP1;P1;durP2;ratioP2;P2;SDS_P1;SDS_P2;PMS_P1;PMS_P2;Temp;Humidity;BMP_temperature;BMP_pressure;BME280_temperature;BME280_humidity;BME280_pressure;Samples;Min_cycle;Max_cycle;Signal;HPM_P1;HPM_P2
2022/04/29 00:00:34;;;;;;;6.80;2.85;;;8.30;99.90;;;;;;5088306;28;20023;-37
2022/04/29 00:03:01;;;;;;;4.35;2.58;;;8.20;99.90;;;;;;5089025;28;20039;-38
2022/04/29 00:05:26;;;;;;;11.80;2.85;;;8.20;99.90;;;;;;5092369;28;20024;-37
2022/04/29 00:07:52;;;;;;;11.68;3.40;;;8.10;99.90;;;;;;5092772;28;20017;-38
2022/04/29 00:13:05;;;;;;;7.32;2.90;;;8.10;99.90;;;;;;5100575;28;20143;-28
2022/04/29 00:15:31;;;;;;;6.03;2.80;;;8.00;99.90;;;;;;5089474;28;20165;-30
2022/04/29 00:17:57;;;;;;;10.45;2.38;;;8.00;99.90;;;;;;5101421;28;20103;-26
2022/04/29 00:20:23;;;;;;;6.57;3.15;;;7.90;99.90;;;;;;5103005;28;20035;-27
2022/04/29 00:22:50;;;;;;;9.25;3.00;;;7.90;99.90;;;;;;5091575;28;20016;-29
2022/04/29 00:25:15;;;;;;;4.63;2.80;;;7.80;99.90;;;;;;5092916;28;20028;-27
2022/04/29 00:27:41;;;;;;;5.38;3.03;;;7.80;99.90;;;;;;5091493;28;20392;-27
2022/04/29 00:30:09;;;;;;;4.90;3.33;;;7.80;99.90;;;;;;5091651;28;20027;-29
2022/04/29 00:32:36;;;;;;;9.93;3.78;;;7.80;99.90;;;;;;5089605;28;20153;-28
2022/04/29 00:35:02;;;;;;;5.32;3.30;;;7.80;99.90;;;;;;5088733;28;20107;-27
2022/04/29 00:37:27;;;;;;;6.40;3.70;;;7.80;99.90;;;;;;5092125;28;20226;-30
2022/04/29 00:39:53;;;;;;;13.85;3.55;;;7.90;99.90;;;;;;5092402;28;20039;-30
2022/04/29 00:42:23;;;;;;;7.07;3.25;;;7.90;99.90;;;;;;5091591;28;20395;-28
2022/04/29 00:44:49;;;;;;;4.97;3.47;;;7.90;99.90;;;;;;5091725;28;20032;-42
2022/04/29 00:47:19;;;;;;;7.43;3.40;;;7.80;99.90;;;;;;5092146;28;20392;-36
2022/04/29 00:49:45;;;;;;;19.10;5.03;;;7.90;99.90;;;;;;5092488;28;20402;-37
2022/04/29 00:52:14;;;;;;;14.57;5.32;;;7.80;99.90;;;;;;5094540;28;20123;-36
2022/04/29 00:54:42;;;;;;;10.27;3.72;;;7.90;99.90;;;;;;5093812;28;20079;-36
2022/04/29 00:57:14;;;;;;;13.75;3.70;;;7.90;99.90;;;;;;5091442;28;20073;-36
2022/04/29 01:00:03;;;;;;;5.68;3.10;;;7.90;99.90;;;;;;5090095;28;20028;-38
2022/04/29 01:02:29;;;;;;;10.80;4.28;;;7.90;99.90;;;;;;5098320;28;20023;-27
2022/04/29 01:05:07;;;;;;;7.07;3.75;;;7.90;99.90;;;;;;5098372;28;20070;-45
2022/04/29 01:07:33;;;;;;;;;;;7.90;99.90;;;;;;5090696;28;20058;-36
2022/04/29 01:09:59;;;;;;;8.68;3.30;;;7.90;99.90;;;;;;5089842;28;19916;-37
2022/04/29 01:12:28;;;;;;;8.55;4.18;;;7.90;99.90;;;;;;5091349;28;20040;-32
2022/04/29 01:14:55;;;;;;;7.95;4.30;;;7.90;99.90;;;;;;5084356;28;20028;-36
2022/04/29 01:17:21;;;;;;;7.15;2.75;;;7.90;99.90;;;;;;5091419;28;20024;-36
2022/04/29 01:19:50;;;;;;;15.55;4.40;;;7.90;99.90;;;;;;5094534;28;20095;-36
2022/04/29 01:22:15;;;;;;;13.60;4.22;;;8.00;99.90;;;;;;5095096;28;20085;-36
2022/04/29 01:24:41;;;;;;;9.90;3.13;;;7.90;99.90;;;;;;5094208;28;20033;-36
2022/04/29 01:27:13;;;;;;;9.15;2.92;;;7.90;99.90;;;;;;5094479;28;20080;-36
2022/04/29 01:29:40;;;;;;;5.95;2.97;;;7.90;99.90;;;;;;5096605;28;20598;-36
2022/04/29 01:32:10;;;;;;;5.85;3.03;;;7.90;99.90;;;;;;5095474;28;20031;-38
2022/04/29 01:34:37;;;;;;;7.72;3.35;;;7.90;99.90;;;;;;5101304;28;20067;-37
2022/04/29 01:37:04;;;;;;;6.95;3.17;;;8.00;99.90;;;;;;5095679;28;20483;-30
2022/04/29 01:39:29;;;;;;;8.73;3.65;;;8.00;99.90;;;;;;5093438;28;20463;-29
2022/04/29 01:41:55;;;;;;;5.15;2.95;;;8.10;99.90;;;;;;5095609;28;20109;-27
2022/04/29 01:44:20;;;;;;;11.60;3.75;;;8.10;99.90;;;;;;5095530;28;20020;-31
2022/04/29 01:46:46;;;;;;;5.00;3.72;;;8.10;99.90;;;;;;5094822;28;20032;-40
2022/04/29 01:49:12;;;;;;;7.68;3.33;;;8.10;99.90;;;;;;5105687;28;20030;-27
2022/04/29 01:51:38;;;;;;;5.15;3.05;;;8.10;99.90;;;;;;5109302;28;20028;-28
2022/04/29 01:54:09;;;;;;;28.88;4.03;;;8.00;99.90;;;;;;5095100;28;20032;-27
2022/04/29 01:56:35;;;;;;;10.60;4.15;;;7.90;99.90;;;;;;5093514;28;20384;-28
2022/04/29 01:59:01;;;;;;;13.02;3.78;;;7.90;99.90;;;;;;5104971;28;20020;-29
2022/04/29 02:01:27;;;;;;;14.20;3.83;;;8.00;99.90;;;;;;5094685;28;20020;-28
2022/04/29 02:03:54;;;;;;;8.00;3.17;;;8.00;99.90;;;;;;5094705;28;20495;-35
2022/04/29 02:06:20;;;;;;;7.80;3.27;;;8.00;99.90;;;;;;5092117;28;20032;-28
2022/04/29 02:08:46;;;;;;;11.23;3.60;;;8.00;99.90;;;;;;5094335;28;20054;-29
2022/04/29 02:11:11;;;;;;;11.50;3.25;;;8.10;99.90;;;;;;5093991;28;20111;-29
2022/04/29 02:13:38;;;;;;;7.28;3.60;;;8.00;99.90;;;;;;5094434;28;20476;-41
2022/04/29 02:16:04;;;;;;;6.50;3.63;;;8.00;99.90;;;;;;5100980;28;20549;-31
2022/04/29 02:18:30;;;;;;;14.18;5.13;;;7.90;99.90;;;;;;5094731;28;20020;-27
2022/04/29 02:20:56;;;;;;;14.80;4.18;;;8.00;99.90;;;;;;5093128;28;20154;-32
2022/04/29 02:23:22;;;;;;;13.68;3.60;;;8.10;99.90;;;;;;5093981;28;20035;-27
2022/04/29 02:25:47;;;;;;;11.05;3.80;;;8.00;99.90;;;;;;5093598;28;20099;-30
2022/04/29 02:28:13;;;;;;;7.07;3.58;;;8.10;99.90;;;;;;5094145;28;20095;-29
2022/04/29 02:30:40;;;;;;;4.65;2.80;;;8.10;99.90;;;;;;5095840;28;20027;-52
2022/04/29 02:33:07;;;;;;;9.43;3.53;;;8.10;99.90;;;;;;5095363;28;20138;-28
2022/04/29 02:35:32;;;;;;;9.45;3.25;;;8.00;99.90;;;;;;5093763;28;20039;-47
2022/04/29 02:37:58;;;;;;;9.00;3.75;;;8.00;99.90;;;;;;5093160;28;20418;-37
2022/04/29 02:40:24;;;;;;;5.72;2.90;;;8.10;99.90;;;;;;5092460;28;20041;-37
2022/04/29 02:42:52;;;;;;;6.05;3.42;;;8.10;99.90;;;;;;5093791;28;20069;-36
2022/04/29 02:45:18;;;;;;;7.97;3.70;;;8.00;99.90;;;;;;5100359;28;20035;-37
2022/04/29 02:47:43;;;;;;;4.03;3.40;;;7.90;99.90;;;;;;5090182;28;20464;-37
2022/04/29 02:50:09;;;;;;;7.65;3.75;;;7.90;99.90;;;;;;5092749;28;20511;-37
2022/04/29 02:52:35;;;;;;;9.35;2.92;;;8.00;99.90;;;;;;5094292;28;20657;-36
2022/04/29 02:55:00;;;;;;;10.05;3.50;;;7.90;99.90;;;;;;5105634;28;20027;-36
2022/04/29 02:57:27;;;;;;;7.63;3.90;;;7.90;99.90;;;;;;5101810;28;20025;-37
2022/04/29 02:59:52;;;;;;;10.40;4.03;;;8.00;99.90;;;;;;5093437;28;20020;-36
2022/04/29 03:02:18;;;;;;;6.88;3.85;;;7.90;99.90;;;;;;5093075;28;20024;-30
2022/04/29 03:04:43;;;;;;;7.25;3.17;;;7.90;99.90;;;;;;5097607;28;20023;-28
2022/04/29 03:07:09;;;;;;;4.55;3.22;;;7.90;99.90;;;;;;5108862;28;20545;-30
2022/04/29 03:09:34;;;;;;;7.18;3.15;;;8.00;99.90;;;;;;5094132;28;20032;-27
2022/04/29 03:12:00;;;;;;;13.52;3.60;;;7.90;99.90;;;;;;5093149;28;20028;-32
2022/04/29 03:14:26;;;;;;;5.90;3.50;;;7.90;99.90;;;;;;5099384;28;20043;-28
2022/04/29 03:16:52;;;;;;;16.35;3.90;;;7.90;99.90;;;;;;5100635;28;20026;-27
2022/04/29 03:19:17;;;;;;;7.30;3.47;;;7.80;99.90;;;;;;5093174;28;20464;-34
2022/04/29 03:21:43;;;;;;;9.23;4.65;;;7.80;99.90;;;;;;5093213;28;20017;-30
2022/04/29 03:24:09;;;;;;;7.68;3.88;;;7.80;99.90;;;;;;5095452;28;20039;-30
2022/04/29 03:26:35;;;;;;;10.90;3.50;;;7.90;99.90;;;;;;5109636;28;20063;-45
2022/04/29 03:29:01;;;;;;;10.50;3.60;;;7.80;99.90;;;;;;5092261;28;20028;-36
2022/04/29 03:31:27;;;;;;;12.57;4.03;;;7.90;99.90;;;;;;5093268;28;20031;-27
2022/04/29 03:33:52;;;;;;;8.73;3.17;;;7.80;99.90;;;;;;5091436;28;20036;-27
2022/04/29 03:36:18;;;;;;;10.15;3.42;;;7.70;99.90;;;;;;5091471;28;20020;-30
2022/04/29 03:38:44;;;;;;;7.72;3.40;;;7.70;99.90;;;;;;5093362;28;20522;-27
2022/04/29 03:41:10;;;;;;;8.75;3.35;;;7.70;99.90;;;;;;5092729;28;20044;-30
2022/04/29 03:43:35;;;;;;;10.13;3.22;;;7.80;99.90;;;;;;5092353;28;20055;-31
2022/04/29 03:46:02;;;;;;;7.65;3.90;;;7.80;99.90;;;;;;5094688;28;20034;-27
2022/04/29 03:48:28;;;;;;;10.98;4.05;;;7.80;99.90;;;;;;5091643;28;20030;-29
2022/04/29 03:50:53;;;;;;;8.65;3.50;;;7.80;99.90;;;;;;5093437;28;20476;-30
2022/04/29 03:53:25;;;;;;;6.68;3.28;;;7.70;99.90;;;;;;5093181;28;20118;-28
2022/04/29 03:55:51;;;;;;;7.60;3.83;;;7.80;99.90;;;;;;5107028;28;20023;-42
2022/04/29 03:58:16;;;;;;;11.63;3.85;;;7.70;99.90;;;;;;5094041;28;20385;-36
2022/04/29 04:00:42;;;;;;;18.85;4.72;;;7.70;99.90;;;;;;5092345;28;20024;-47
2022/04/29 04:03:08;;;;;;;20.83;4.38;;;7.70;99.90;;;;;;5092318;28;20059;-36
2022/04/29 04:05:34;;;;;;;15.93;4.25;;;7.70;99.90;;;;;;5098459;28;20035;-36
2022/04/29 04:07:59;;;;;;;6.60;3.40;;;7.70;99.90;;;;;;5096582;28;20031;-38
2022/04/29 04:10:26;;;;;;;13.52;3.35;;;7.60;99.90;;;;;;5091828;28;20035;-36
2022/04/29 04:12:55;;;;;;;6.63;3.03;;;7.60;99.90;;;;;;5093127;28;20111;-37
2022/04/29 04:15:23;;;;;;;12.13;3.80;;;7.60;99.90;;;;;;5093615;28;20085;-36
2022/04/29 04:17:49;;;;;;;9.45;4.28;;;7.50;99.90;;;;;;5093584;28;20349;-36
2022/04/29 04:20:16;;;;;;;9.43;4.05;;;7.50;99.90;;;;;;5092537;28;20221;-36
2022/04/29 04:22:42;;;;;;;12.48;3.53;;;7.50;99.90;;;;;;5090850;28;20024;-27
2022/04/29 04:25:10;;;;;;;9.00;3.53;;;7.50;99.90;;;;;;5092283;28;20024;-28
2022/04/29 04:27:35;;;;;;;11.27;4.05;;;7.50;99.90;;;;;;5098587;28;20036;-37
2022/04/29 04:30:02;;;;;;;7.45;3.92;;;7.40;99.90;;;;;;5091616;28;20099;-37
2022/04/29 04:32:32;;;;;;;15.65;3.58;;;7.40;99.90;;;;;;5091580;28;20027;-35
2022/04/29 04:34:58;;;;;;;11.77;3.55;;;7.50;99.90;;;;;;5093803;28;20023;-36
2022/04/29 04:37:25;;;;;;;8.13;3.85;;;7.40;99.90;;;;;;5092950;28;20395;-37
2022/04/29 04:39:52;;;;;;;14.27;4.78;;;7.30;99.90;;;;;;5091164;28;20538;-37
2022/04/29 04:42:18;;;;;;;11.60;3.22;;;7.30;99.90;;;;;;5090095;28;20515;-61
2022/04/29 04:44:49;;;;;;;6.88;3.22;;;7.30;99.90;;;;;;5082410;28;20469;-36
2022/04/29 04:47:15;;;;;;;18.52;4.57;;;7.20;99.90;;;;;;5090810;28;20024;-36
2022/04/29 04:49:41;;;;;;;12.65;3.80;;;7.20;99.90;;;;;;5092523;28;20035;-36
2022/04/29 04:52:06;;;;;;;12.95;4.03;;;7.20;99.90;;;;;;5090650;28;20119;-36
2022/04/29 04:54:32;;;;;;;10.93;4.03;;;7.20;99.90;;;;;;5090412;28;20028;-37
2022/04/29 04:56:58;;;;;;;12.95;4.15;;;7.30;99.90;;;;;;5092190;28;20020;-36
2022/04/29 04:59:24;;;;;;;11.95;4.68;;;7.30;99.90;;;;;;5092980;28;20062;-36
2022/04/29 05:01:50;;;;;;;10.77;4.05;;;7.30;99.90;;;;;;5096226;28;20075;-38
2022/04/29 05:04:15;;;;;;;10.65;3.75;;;7.30;99.90;;;;;;5095301;28;20400;-30
2022/04/29 05:06:41;;;;;;;11.32;3.67;;;7.40;99.90;;;;;;5096325;28;20055;-27
2022/04/29 05:09:07;;;;;;;8.55;3.83;;;7.40;99.90;;;;;;5093472;28;20047;-29
2022/04/29 05:11:34;;;;;;;9.45;4.25;;;7.30;99.90;;;;;;5093282;28;20031;-26
2022/04/29 05:14:00;;;;;;;11.02;3.70;;;7.30;99.90;;;;;;5095374;28;20065;-27
2022/04/29 05:16:26;;;;;;;11.30;2.90;;;7.30;99.90;;;;;;5095107;28;20036;-27
2022/04/29 05:18:52;;;;;;;14.48;3.88;;;7.40;99.90;;;;;;5096570;28;20483;-32
2022/04/29 05:21:17;;;;;;;7.50;3.22;;;7.40;99.90;;;;;;5096309;28;20024;-28
2022/04/29 05:23:43;;;;;;;11.52;3.80;;;7.40;99.90;;;;;;5094829;28;20036;-26
2022/04/29 05:26:09;;;;;;;10.70;3.78;;;7.40;99.90;;;;;;5094975;28;20028;-44
2022/04/29 05:28:35;;;;;;;8.05;3.53;;;7.40;99.90;;;;;;5094041;28;20052;-29
2022/04/29 05:31:02;;;;;;;9.38;3.80;;;7.40;99.90;;;;;;5096710;28;20111;-27
2022/04/29 05:33:29;;;;;;;8.52;4.20;;;7.40;99.90;;;;;;5097067;28;20081;-27
2022/04/29 05:35:55;;;;;;;8.85;3.30;;;7.50;99.90;;;;;;5093992;28;20024;-28
2022/04/29 05:38:21;;;;;;;8.68;3.53;;;7.60;99.90;;;;;;5089227;28;20491;-28
2022/04/29 05:43:31;;;;;;;11.38;3.38;;;7.60;99.90;;;;;;5087857;28;20051;-27
2022/04/29 05:45:57;;;;;;;12.60;3.35;;;7.60;99.90;;;;;;5094312;28;20016;-29
2022/04/29 05:48:22;;;;;;;10.98;3.75;;;7.60;99.90;;;;;;5094262;28;20106;-27
2022/04/29 05:50:48;;;;;;;12.02;4.78;;;7.70;99.90;;;;;;5095745;28;20035;-28
2022/04/29 05:53:15;;;;;;;10.88;3.45;;;7.70;99.90;;;;;;5095247;28;20028;-27
2022/04/29 05:55:42;;;;;;;14.68;4.03;;;7.80;99.90;;;;;;5094427;28;20023;-27
2022/04/29 05:58:08;;;;;;;15.32;4.72;;;7.90;99.90;;;;;;5095272;28;20020;-30
2022/04/29 06:00:33;;;;;;;9.98;3.55;;;7.90;99.90;;;;;;5089684;28;20035;-27
2022/04/29 06:03:00;;;;;;;11.93;3.08;;;7.90;99.90;;;;;;5095282;28;20020;-27
2022/04/29 06:05:26;;;;;;;9.10;3.33;;;8.00;99.90;;;;;;5094056;28;20380;-28
2022/04/29 06:07:52;;;;;;;11.25;3.95;;;8.10;99.90;;;;;;5092236;28;20043;-29
2022/04/29 06:10:19;;;;;;;10.07;2.88;;;8.00;99.90;;;;;;5093873;28;20456;-32
2022/04/29 06:12:46;;;;;;;13.95;3.28;;;8.00;99.90;;;;;;5095846;28;20016;-27
2022/04/29 06:15:19;;;;;;;8.95;3.35;;;8.10;99.90;;;;;;5089125;28;20036;-47
2022/04/29 06:17:45;;;;;;;7.38;3.30;;;8.20;99.90;;;;;;5086322;28;20028;-48
2022/04/29 06:20:11;;;;;;;15.27;4.68;;;8.20;99.90;;;;;;5091429;28;20020;-35
2022/04/29 06:22:44;;;;;;;7.90;3.15;;;8.30;99.90;;;;;;5087594;28;20048;-45
2022/04/29 06:25:11;;;;;;;11.60;4.20;;;8.50;99.90;;;;;;5092922;28;20095;-36
2022/04/29 06:27:36;;;;;;;11.55;3.03;;;8.60;99.90;;;;;;5089241;28;20020;-33
2022/04/29 06:30:02;;;;;;;5.55;3.67;;;8.70;99.90;;;;;;5090140;28;20358;-36
2022/04/29 06:32:28;;;;;;;11.48;4.22;;;8.70;99.90;;;;;;5093907;28;20032;-37
2022/04/29 06:34:54;;;;;;;11.38;3.72;;;8.90;99.90;;;;;;5094390;28;20032;-36
2022/04/29 06:37:21;;;;;;;12.85;3.67;;;9.00;99.90;;;;;;5094064;28;20487;-36
2022/04/29 06:39:47;;;;;;;12.93;3.38;;;9.00;99.90;;;;;;5092156;28;20492;-36
2022/04/29 06:42:12;;;;;;;10.02;4.32;;;9.10;99.90;;;;;;5099051;28;20537;-36
2022/04/29 06:44:57;;;;;;;8.48;4.13;;;9.10;99.90;;;;;;5094409;28;20028;-37
2022/04/29 06:47:22;;;;;;;12.13;3.53;;;9.10;99.90;;;;;;5095228;28;20031;-37
2022/04/29 06:49:48;;;;;;;11.00;3.70;;;9.20;99.90;;;;;;5093876;28;20391;-37
2022/04/29 06:52:14;;;;;;;10.27;4.40;;;9.30;99.90;;;;;;5093536;28;20028;-36
2022/04/29 06:54:39;;;;;;;11.63;3.80;;;9.40;99.90;;;;;;5094084;28;20507;-36
2022/04/29 06:57:06;;;;;;;14.50;4.70;;;9.50;99.90;;;;;;5100864;28;20024;-36
2022/04/29 06:59:32;;;;;;;6.45;2.97;;;9.40;99.90;;;;;;5099040;28;20020;-37
2022/04/29 07:01:58;;;;;;;9.32;3.80;;;9.40;99.90;;;;;;5091059;28;20065;-36
2022/04/29 07:04:28;;;;;;;6.85;3.20;;;9.50;99.90;;;;;;5103379;28;20026;-36
2022/04/29 07:06:59;;;;;;;13.98;3.05;;;9.70;99.90;;;;;;5092276;28;20481;-38
2022/04/29 07:09:25;;;;;;;6.95;3.50;;;9.80;99.90;;;;;;5100691;28;20503;-38
2022/04/29 07:11:51;;;;;;;6.30;3.30;;;9.90;99.90;;;;;;5094785;28;20020;-40
2022/04/29 07:14:17;;;;;;;9.45;3.28;;;9.80;99.90;;;;;;5099735;28;20024;-36
2022/04/29 07:16:43;;;;;;;15.95;3.50;;;9.80;99.90;;;;;;5086592;28;20426;-37
2022/04/29 07:19:09;;;;;;;9.60;3.40;;;9.80;99.90;;;;;;5093109;28;20016;-31
2022/04/29 07:21:34;;;;;;;11.35;3.80;;;9.80;99.90;;;;;;5105433;28;20028;-36
2022/04/29 07:24:00;;;;;;;8.32;3.55;;;9.90;99.90;;;;;;5092690;28;20020;-32
2022/04/29 07:26:25;;;;;;;10.65;2.88;;;9.80;99.90;;;;;;5084339;28;20023;-37
2022/04/29 07:28:51;;;;;;;8.40;3.38;;;9.90;99.90;;;;;;5091815;28;20043;-36
2022/04/29 07:31:17;;;;;;;10.63;2.80;;;10.00;99.90;;;;;;5098808;28;20034;-37
2022/04/29 07:33:42;;;;;;;9.50;3.75;;;10.20;99.90;;;;;;5093089;28;20024;-36
2022/04/29 07:41:44;;;;;;;9.48;3.22;;;10.30;99.90;;;;;;5091757;28;20514;-38
2022/04/29 07:44:10;;;;;;;12.23;2.60;;;10.40;99.90;;;;;;5087690;28;20020;-37
2022/04/29 07:46:36;;;;;;;10.88;2.53;;;10.60;99.90;;;;;;5109570;28;20107;-36
2022/04/29 07:49:02;;;;;;;10.20;2.47;;;10.60;99.90;;;;;;5094342;28;20491;-30
2022/04/29 07:51:28;;;;;;;10.15;2.80;;;10.70;99.90;;;;;;5093885;28;20078;-30
2022/04/29 07:53:54;;;;;;;4.38;2.53;;;10.80;99.90;;;;;;5103465;28;20027;-29
2022/04/29 07:56:19;;;;;;;8.15;3.20;;;10.70;99.90;;;;;;5109660;28;20026;-31
2022/04/29 07:58:45;;;;;;;11.57;2.28;;;10.70;99.90;;;;;;5114278;28;20020;-29
2022/04/29 08:01:11;;;;;;;11.48;3.47;;;10.70;99.90;;;;;;5114473;28;20011;-36
2022/04/29 08:03:37;;;;;;;11.63;3.22;;;10.80;99.90;;;;;;5106348;28;20031;-29
2022/04/29 08:06:07;;;;;;;14.35;3.60;;;10.90;99.90;;;;;;5094085;28;20016;-31
2022/04/29 08:08:34;;;;;;;12.27;3.75;;;10.90;99.90;;;;;;5093815;28;20047;-27
2022/04/29 08:11:00;;;;;;;10.40;3.55;;;10.90;99.90;;;;;;5092754;28;20114;-28
2022/04/29 08:13:27;;;;;;;7.40;3.45;;;11.00;99.90;;;;;;5098373;28;20035;-30
2022/04/29 08:15:52;;;;;;;10.65;3.78;;;11.00;99.90;;;;;;5113818;28;20031;-29
2022/04/29 08:18:18;;;;;;;10.88;4.20;;;11.00;99.90;;;;;;5108189;28;20036;-30
2022/04/29 08:20:45;;;;;;;9.13;3.35;;;11.00;99.90;;;;;;5092957;28;20470;-47
2022/04/29 08:23:11;;;;;;;11.18;4.15;;;11.00;99.90;;;;;;5091657;28;20565;-37
2022/04/29 08:25:37;;;;;;;12.38;3.53;;;11.00;99.90;;;;;;5093423;28;20024;-37
2022/04/29 08:28:04;;;;;;;8.48;3.22;;;11.00;99.90;;;;;;5093239;28;20028;-36
2022/04/29 08:30:30;;;;;;;7.38;3.72;;;11.10;99.90;;;;;;5105414;28;20502;-28
2022/04/29 08:32:57;;;;;;;7.50;3.38;;;11.00;99.90;;;;;;5111423;28;20483;-27
2022/04/29 08:35:24;;;;;;;7.43;2.60;;;11.00;99.90;;;;;;5113895;28;20535;-29
2022/04/29 08:37:50;;;;;;;9.68;3.80;;;11.10;99.90;;;;;;5107950;28;20087;-31
2022/04/29 08:40:16;;;;;;;9.10;3.90;;;11.10;99.90;;;;;;5090418;28;20215;-31
2022/04/29 08:42:42;;;;;;;5.85;3.95;;;11.00;99.90;;;;;;5093303;28;20503;-29
2022/04/29 08:45:13;;;;;;;9.32;3.38;;;10.90;99.90;;;;;;5102134;28;20032;-31
2022/04/29 08:47:40;;;;;;;6.15;3.80;;;10.90;99.90;;;;;;5113482;28;20077;-34
2022/04/29 08:50:09;;;;;;;10.45;3.40;;;10.90;99.90;;;;;;5113470;28;20020;-29
2022/04/29 08:52:38;;;;;;;3.83;2.63;;;10.90;99.90;;;;;;5108310;28;20500;-32
2022/04/29 09:00:41;;;;;;;12.02;4.53;;;10.80;99.90;;;;;;5089588;28;20034;-32
2022/04/29 09:03:15;;;;;;;8.85;3.50;;;10.80;99.90;;;;;;5089932;28;20078;-31
2022/04/29 09:05:48;;;;;;;10.90;3.25;;;10.90;99.90;;;;;;5090646;28;20029;-32
2022/04/29 09:08:19;;;;;;;10.05;3.50;;;10.90;99.90;;;;;;5096730;28;20487;-32
2022/04/29 09:10:49;;;;;;;12.50;3.03;;;11.10;99.90;;;;;;5092216;28;20384;-32
2022/04/29 09:13:24;;;;;;;9.15;4.53;;;11.10;99.90;;;;;;5091901;28;20035;-32
2022/04/29 09:16:12;;;;;;;8.57;4.15;;;11.00;99.90;;;;;;5090018;28;20089;-44
2022/04/29 09:18:48;;;;;;;12.35;3.67;;;11.00;99.90;;;;;;5094340;28;20500;-29
2022/04/29 09:21:24;;;;;;;15.60;4.15;;;11.00;99.90;;;;;;5096397;28;20345;-29
2022/04/29 09:23:57;;;;;;;7.10;3.72;;;11.10;99.90;;;;;;5092305;28;20422;-38
2022/04/29 09:26:27;;;;;;;9.95;3.65;;;11.10;99.90;;;;;;5090027;28;20020;-30
2022/04/29 09:29:09;;;;;;;11.32;4.22;;;11.20;99.90;;;;;;5092456;28;20088;-30
2022/04/29 09:31:57;;;;;;;11.25;3.72;;;11.20;99.90;;;;;;5092448;28;20111;-37
2022/04/29 09:34:23;;;;;;;8.02;3.47;;;11.30;99.90;;;;;;5091876;28;20027;-37
2022/04/29 09:36:50;;;;;;;11.85;3.95;;;11.40;99.90;;;;;;5102507;28;20467;-37
2022/04/29 09:39:30;;;;;;;9.02;4.22;;;11.40;99.90;;;;;;5112855;28;20084;-38
2022/04/29 09:41:56;;;;;;;13.48;4.20;;;11.40;99.90;;;;;;5085123;28;20032;-37
2022/04/29 09:44:32;;;;;;;10.65;3.92;;;11.40;99.90;;;;;;5092387;28;20030;-38
2022/04/29 09:47:20;;;;;;;6.47;3.63;;;11.40;99.90;;;;;;5093212;28;20028;-36
2022/04/29 09:49:59;;;;;;;6.65;3.58;;;11.30;99.90;;;;;;5089323;28;20476;-37
2022/04/29 09:52:26;;;;;;;10.02;3.75;;;11.30;99.90;;;;;;5100973;28;20115;-36
2022/04/29 09:54:53;;;;;;;6.78;3.38;;;11.40;99.90;;;;;;5089731;28;20044;-38
2022/04/29 09:57:23;;;;;;;9.38;3.03;;;11.30;99.90;;;;;;5083113;28;20387;-36
2022/04/29 09:59:50;;;;;;;11.63;3.83;;;11.50;99.90;;;;;;5109202;28;20471;-36
2022/04/29 10:02:18;;;;;;;7.78;4.00;;;11.60;99.90;;;;;;5106731;28;20020;-38
2022/04/29 10:04:44;;;;;;;;;;;11.60;99.90;;;;;;5095878;28;20043;-30
2022/04/29 10:07:13;;;;;;;6.68;3.00;;;11.60;99.90;;;;;;5095276;28;19908;-32
2022/04/29 10:09:41;;;;;;;8.07;3.60;;;11.60;99.90;;;;;;5095976;28;20138;-32
2022/04/29 10:12:13;;;;;;;10.55;4.57;;;11.50;99.90;;;;;;5094025;28;20494;-29
2022/04/29 10:14:40;;;;;;;9.95;4.65;;;11.50;99.90;;;;;;5093537;28;20039;-37
2022/04/29 10:23:05;;;;;;;4.78;3.78;;;11.60;99.90;;;;;;5094517;28;20038;-29
2022/04/29 10:25:33;;;;;;;6.38;3.97;;;11.50;99.90;;;;;;5108030;28;20173;-47
2022/04/29 10:28:00;;;;;;;4.13;2.90;;;11.50;99.90;;;;;;5098124;28;20111;-37
2022/04/29 10:30:34;;;;;;;12.63;4.10;;;11.50;99.90;;;;;;5094920;28;20038;-37
2022/04/29 10:33:10;;;;;;;13.15;4.93;;;11.80;99.90;;;;;;5094603;28;20059;-37
2022/04/29 10:35:39;;;;;;;9.20;4.00;;;12.10;99.90;;;;;;5091332;28;20028;-37
2022/04/29 10:38:50;;;;;;;10.63;4.18;;;12.20;99.90;;;;;;5091612;28;20019;-37
2022/04/29 10:41:25;;;;;;;13.02;4.55;;;12.30;99.90;;;;;;5087303;28;20113;-36
2022/04/29 10:43:50;;;;;;;10.98;3.85;;;12.20;99.90;;;;;;5095756;28;20468;-36
2022/04/29 10:46:27;;;;;;;8.18;4.03;;;12.20;99.90;;;;;;5095097;28;20073;-49
2022/04/29 10:48:54;;;;;;;14.48;4.47;;;12.20;99.90;;;;;;5090423;28;20487;-41
2022/04/29 10:51:21;;;;;;;11.13;3.83;;;12.10;99.90;;;;;;5092151;28;20432;-36
2022/04/29 10:53:53;;;;;;;8.23;4.38;;;12.00;99.90;;;;;;5096195;28;20483;-36
2022/04/29 10:56:28;;;;;;;6.78;4.00;;;12.00;99.90;;;;;;5079883;28;20016;-37
2022/04/29 10:59:05;;;;;;;7.35;3.47;;;12.10;99.90;;;;;;5087387;28;20456;-37
2022/04/29 11:01:34;;;;;;;10.57;3.80;;;12.20;99.90;;;;;;5091770;28;20043;-37
2022/04/29 11:04:07;;;;;;;6.93;3.10;;;12.20;99.90;;;;;;5093068;28;20043;-37
2022/04/29 11:06:37;;;;;;;10.23;3.55;;;12.10;99.90;;;;;;5093590;28;20156;-36
2022/04/29 11:09:23;;;;;;;7.78;4.03;;;12.00;99.90;;;;;;5098230;28;20032;-37
2022/04/29 11:11:49;;;;;;;7.68;3.92;;;12.10;99.90;;;;;;5094062;28;20494;-35
2022/04/29 11:14:15;;;;;;;4.60;3.33;;;12.10;99.90;;;;;;5093488;28;20020;-35
2022/04/29 11:16:55;;;;;;;6.72;3.63;;;12.30;99.90;;;;;;5094903;28;20525;-37
2022/04/29 11:19:26;;;;;;;6.60;3.72;;;12.30;99.90;;;;;;5093754;28;20486;-37
2022/04/29 11:24:48;;;;;;;4.00;2.97;;;12.30;99.90;;;;;;5088672;28;20047;-37
2022/04/29 11:27:23;;;;;;;10.93;3.53;;;12.60;99.90;;;;;;5087660;28;20016;-37
2022/04/29 11:29:49;;;;;;;10.65;3.72;;;12.60;99.90;;;;;;5094329;28;20031;-37
2022/04/29 11:32:25;;;;;;;6.95;2.92;;;12.60;99.90;;;;;;5093585;28;20028;-38
2022/04/29 11:35:00;;;;;;;4.57;2.80;;;12.70;99.90;;;;;;5094096;28;20020;-35
2022/04/29 11:37:28;;;;;;;4.65;2.67;;;12.50;99.90;;;;;;5095311;28;20028;-36
2022/04/29 11:40:01;;;;;;;5.13;2.85;;;12.40;99.90;;;;;;5092674;28;20067;-37
2022/04/29 11:42:27;;;;;;;5.07;3.20;;;12.40;99.90;;;;;;5093047;28;20109;-36
2022/04/29 11:44:53;;;;;;;3.10;2.83;;;12.40;99.90;;;;;;5088429;28;20027;-38
2022/04/29 11:47:25;;;;;;;7.63;3.08;;;12.50;99.90;;;;;;5086842;28;20448;-36
2022/04/29 11:49:52;;;;;;;6.50;3.63;;;12.40;99.90;;;;;;5089186;28;20035;-33
2022/04/29 11:52:26;;;;;;;8.80;3.90;;;12.40;99.90;;;;;;5090837;28;20032;-36
2022/04/29 11:55:00;;;;;;;6.68;3.50;;;12.50;99.90;;;;;;5091794;28;21924;-36
2022/04/29 11:57:29;;;;;;;4.15;3.75;;;12.60;99.90;;;;;;5093159;28;20145;-36
2022/04/29 11:59:55;;;;;;;10.52;4.35;;;12.50;99.90;;;;;;5090256;28;20372;-34
2022/04/29 12:02:23;;;;;;;9.55;3.85;;;12.50;99.90;;;;;;5090508;28;20145;-38
2022/04/29 12:04:57;;;;;;;7.35;4.05;;;12.70;99.90;;;;;;5087798;28;20030;-36
2022/04/29 12:07:24;;;;;;;4.07;2.97;;;12.60;99.90;;;;;;5093953;28;20192;-36
2022/04/29 12:09:50;;;;;;;6.53;3.53;;;12.70;99.90;;;;;;5095137;28;20091;-36
2022/04/29 12:12:27;;;;;;;8.30;3.72;;;12.90;99.90;;;;;;5100608;28;20055;-36
2022/04/29 12:14:55;;;;;;;4.78;3.40;;;13.10;99.90;;;;;;5110329;28;20036;-30
2022/04/29 12:17:34;;;;;;;18.38;4.15;;;13.30;99.90;;;;;;5111276;28;20023;-37
2022/04/29 12:20:00;;;;;;;4.70;3.63;;;13.70;99.90;;;;;;5093921;28;20065;-41
2022/04/29 12:22:31;;;;;;;7.13;4.22;;;13.80;99.90;;;;;;5096713;28;20118;-33
2022/04/29 12:24:57;;;;;;;8.57;4.25;;;13.60;99.90;;;;;;5095782;28;20016;-30
2022/04/29 12:27:30;;;;;;;6.90;4.15;;;13.50;99.90;;;;;;5095151;28;20036;-36
2022/04/29 12:35:30;;;;;;;11.52;4.10;;;13.80;99.90;;;;;;5107402;28;20058;-36
2022/04/29 12:37:56;;;;;;;10.70;4.15;;;13.70;99.90;;;;;;5091901;28;20016;-36
2022/04/29 12:40:29;;;;;;;5.85;4.10;;;13.80;99.90;;;;;;5108582;28;20044;-37
2022/04/29 12:43:14;;;;;;;8.02;4.95;;;13.80;99.90;;;;;;5111376;28;20411;-36
2022/04/29 12:45:40;;;;;;;6.45;4.07;;;14.00;99.90;;;;;;5107847;28;20028;-38
2022/04/29 12:48:08;;;;;;;10.73;4.30;;;14.10;99.90;;;;;;5096220;28;20024;-41
2022/04/29 12:50:45;;;;;;;6.40;4.05;;;14.10;99.90;;;;;;5096038;28;20032;-37
2022/04/29 12:53:12;;;;;;;8.20;4.10;;;14.30;99.90;;;;;;5112528;28;20424;-38
2022/04/29 12:55:47;;;;;;;9.32;4.60;;;14.40;99.90;;;;;;5108025;28;20067;-38
2022/04/29 12:58:19;;;;;;;16.05;4.60;;;14.60;99.90;;;;;;5097959;28;20467;-38
2022/04/29 13:00:46;;;;;;;8.55;3.67;;;14.80;99.90;;;;;;5112073;28;20016;-38
2022/04/29 13:03:21;;;;;;;11.95;4.47;;;14.90;99.90;;;;;;5111550;28;20015;-39
2022/04/29 13:05:47;;;;;;;14.55;5.90;;;14.80;99.90;;;;;;5084750;28;20132;-43
2022/04/29 13:08:13;;;;;;;6.03;4.25;;;14.70;99.90;;;;;;5107231;28;20467;-38
2022/04/29 13:10:46;;;;;;;8.95;4.10;;;14.60;99.90;;;;;;5092954;28;20028;-37
2022/04/29 13:13:12;;;;;;;8.13;3.75;;;14.70;99.90;;;;;;5091858;28;20053;-37
2022/04/29 13:15:41;;;;;;;12.68;5.05;;;14.90;99.90;;;;;;5092805;28;20089;-37
2022/04/29 13:18:11;;;;;;;6.40;3.97;;;14.80;99.90;;;;;;5093130;28;20468;-37
2022/04/29 13:20:37;;;;;;;3.90;3.33;;;14.80;99.90;;;;;;5102085;28;20026;-37
2022/04/29 13:23:03;;;;;;;8.32;3.35;;;14.90;99.90;;;;;;5117273;28;20019;-36